Time;durP1;ratioP1;P1;durP2;ratioP2;P2;SDS_P1;SDS_P2;PMS_P1;PMS_P2;Temp;Humidity;BMP_temperature;BMP_pressure;BME280_temperature;BME280_humidity;BME280_pressure;Samples;Min_cycle;Max_cycle;Signal;HPM_P1;HPM_P2
2021/07/07 00:00:22;;;;;;;2.92;1.65;;;;;;;15.89;58.38;100170.47;10313016;28;20243;-75
2021/07/07 00:05:25;;;;;;;2.65;1.48;;;;;;;15.86;58.27;100176.22;10310584;28;21446;-75
2021/07/07 00:10:33;;;;;;;2.78;1.80;;;;;;;15.80;58.57;100174.19;10310924;28;20231;-75
2021/07/07 00:15:36;;;;;;;5.40;1.70;;;;;;;15.81;58.40;100196.69;10308924;28;20253;-75
2021/07/07 00:20:42;;;;;;;2.38;1.80;;;;;;;15.74;58.89;100190.22;10313517;28;20743;-74
2021/07/07 00:25:47;;;;;;;3.30;1.63;;;;;;;15.71;58.80;100191.38;10311373;28;20231;-75
2021/07/07 00:30:51;;;;;;;2.20;1.83;;;;;;;15.67;59.17;100195.44;10313648;28;20277;-75
2021/07/07 00:35:54;;;;;;;2.88;2.08;;;;;;;15.56;59.99;100193.88;10310103;28;20254;-75
2021/07/07 00:40:58;;;;;;;3.10;1.88;;;;;;;15.46;60.00;100185.84;10312519;28;20238;-75
2021/07/07 00:46:02;;;;;;;2.60;1.80;;;;;;;15.41;60.54;100190.91;10310802;28;20810;-75
2021/07/07 00:51:05;;;;;;;4.40;2.70;;;;;;;15.36;60.48;100195.97;10311309;28;20877;-75
2021/07/07 00:56:10;;;;;;;2.92;2.60;;;;;;;15.39;60.50;100198.34;10310246;28;20238;-74
2021/07/07 01:01:13;;;;;;;6.40;2.67;;;;;;;15.37;60.54;100200.34;10312101;28;20723;-75
2021/07/07 01:06:16;;;;;;;5.75;2.60;;;;;;;15.39;60.96;100194.78;10309061;28;20239;-74
2021/07/07 01:11:21;;;;;;;6.70;2.67;;;;;;;15.36;60.97;100192.38;10309011;28;20564;-75
2021/07/07 01:16:26;;;;;;;5.68;2.60;;;;;;;15.26;61.22;100187.91;10309701;28;20269;-75
2021/07/07 01:21:29;;;;;;;5.07;2.58;;;;;;;15.19;61.89;100199.53;10311032;28;20317;-74
2021/07/07 01:26:33;;;;;;;5.07;2.45;;;;;;;15.00;62.25;100187.03;10309737;28;20612;-75
2021/07/07 01:31:38;;;;;;;4.10;2.53;;;;;;;14.85;63.19;100189.47;10310712;28;20231;-75
2021/07/07 01:36:41;;;;;;;6.00;2.95;;;;;;;14.82;63.02;100195.22;10308005;28;20235;-75
2021/07/07 01:41:45;;;;;;;3.88;2.80;;;;;;;14.87;63.07;100197.44;10322692;28;20231;-75
2021/07/07 01:46:48;;;;;;;3.63;2.85;;;;;;;14.84;63.49;100174.28;10309189;28;20341;-75
2021/07/07 01:51:51;;;;;;;5.45;3.22;;;;;;;14.82;63.41;100189.78;10308661;28;20247;-75
2021/07/07 01:56:55;;;;;;;8.25;4.22;;;;;;;14.77;63.65;100198.38;10308267;28;20909;-74
2021/07/07 02:01:58;;;;;;;8.20;4.22;;;;;;;14.77;63.98;100197.53;10308146;28;20238;-75
2021/07/07 02:07:01;;;;;;;9.77;4.97;;;;;;;14.77;64.10;100203.78;10308466;28;20237;-75
2021/07/07 02:12:06;;;;;;;5.65;3.17;;;;;;;14.79;63.99;100209.03;10309349;28;20281;-75
2021/07/07 02:17:11;;;;;;;7.85;3.60;;;;;;;14.78;64.07;100205.50;10306809;28;20235;-75
2021/07/07 02:22:14;;;;;;;4.78;3.28;;;;;;;14.72;64.89;100197.97;10308499;28;20630;-75
2021/07/07 02:27:18;;;;;;;3.47;2.90;;;;;;;14.69;65.56;100198.31;10306872;28;20239;-75
2021/07/07 02:32:21;;;;;;;4.25;3.17;;;;;;;14.68;65.80;100214.69;10309425;28;20234;-75
2021/07/07 02:37:24;;;;;;;9.05;3.20;;;;;;;14.69;66.21;100209.13;10307356;28;20597;-75
2021/07/07 02:42:28;;;;;;;4.53;2.80;;;;;;;14.66;66.21;100206.72;10310631;28;21076;-75
2021/07/07 02:47:31;;;;;;;5.43;3.38;;;;;;;14.66;66.47;100203.19;10307007;28;20234;-75
2021/07/07 02:52:34;;;;;;;5.10;2.90;;;;;;;14.60;66.99;100199.25;10309322;28;20227;-75
2021/07/07 02:57:57;;;;;;;5.10;2.90;;;;;;;14.53;67.45;100206.25;10305548;28;20238;-75
2021/07/07 03:03:03;;;;;;;3.28;2.80;;;;;;;14.50;67.50;100203.88;10307130;28;20230;-75
2021/07/07 03:08:06;;;;;;;4.40;2.50;;;;;;;14.49;68.09;100204.88;10308366;28;20270;-75
2021/07/07 03:13:11;;;;;;;4.55;2.90;;;;;;;14.50;68.28;100201.16;10313266;28;20235;-74
2021/07/07 03:18:14;;;;;;;6.90;2.92;;;;;;;14.56;68.11;100209.53;10311523;28;20739;-74
2021/07/07 03:23:19;;;;;;;4.40;3.20;;;;;;;14.54;68.85;100216.94;10314195;28;20274;-75
2021/07/07 03:28:25;;;;;;;3.75;2.90;;;;;;;14.47;69.77;100225.81;10312359;28;20262;-75
2021/07/07 03:33:28;;;;;;;5.00;3.30;;;;;;;14.46;70.43;100232.22;10313991;28;20223;-74
2021/07/07 03:38:31;;;;;;;6.57;3.53;;;;;;;14.45;70.94;100234.03;10314476;28;20262;-74
2021/07/07 03:43:36;;;;;;;7.00;3.72;;;;;;;14.52;70.71;100226.19;10312346;28;20227;-74
2021/07/07 03:48:38;;;;;;;7.00;3.80;;;;;;;14.54;70.59;100230.44;10314334;28;20235;-75
2021/07/07 03:53:41;;;;;;;4.70;3.55;;;;;;;14.47;70.74;100242.00;10309739;28;20246;-75
2021/07/07 03:58:45;;;;;;;6.85;3.22;;;;;;;14.49;70.55;100235.44;10312180;28;20242;-75
2021/07/07 04:03:48;;;;;;;5.90;3.47;;;;;;;14.58;70.47;100247.19;10315283;28;20829;-75
2021/07/07 04:08:51;;;;;;;7.97;4.22;;;;;;;14.61;70.64;100241.47;10312377;28;20231;-75
2021/07/07 04:13:56;;;;;;;8.32;3.83;;;;;;;14.65;70.36;100250.16;10314625;28;20621;-75
2021/07/07 04:18:58;;;;;;;5.70;3.75;;;;;;;14.65;70.26;100259.09;10312774;28;20231;-75
2021/07/07 04:24:01;;;;;;;7.28;3.67;;;;;;;14.74;70.30;100254.63;10312245;28;20231;-75
2021/07/07 04:29:06;;;;;;;6.00;3.60;;;;;;;14.85;69.47;100258.94;10312499;28;20896;-75
2021/07/07 04:34:08;;;;;;;7.57;3.75;;;;;;;14.92;69.51;100260.88;10312194;28;20246;-74
2021/07/07 04:39:11;;;;;;;8.43;3.80;;;;;;;15.00;69.27;100263.66;10312838;28;20250;-75
2021/07/07 04:44:16;;;;;;;6.38;3.13;;;;;;;15.00;69.43;100271.78;10312479;28;20234;-75
2021/07/07 04:49:18;;;;;;;6.45;3.58;;;;;;;15.01;69.79;100280.72;10311314;28;20409;-75
2021/07/07 04:54:21;;;;;;;5.88;3.28;;;;;;;15.06;69.31;100278.41;10310084;28;20742;-75
2021/07/07 04:59:26;;;;;;;6.70;3.53;;;;;;;15.09;69.16;100271.84;10313431;28;20238;-75
2021/07/07 05:04:29;;;;;;;5.57;3.30;;;;;;;15.12;69.48;100285.88;10312367;28;20250;-75
2021/07/07 05:09:31;;;;;;;6.35;3.50;;;;;;;15.10;69.41;100287.06;10311271;28;20246;-74
2021/07/07 05:14:36;;;;;;;4.93;3.10;;;;;;;15.11;69.90;100286.91;10312180;28;20247;-75
2021/07/07 05:19:39;;;;;;;6.68;4.07;;;;;;;15.21;69.82;100294.91;10309977;28;21884;-75
2021/07/07 05:24:42;;;;;;;7.43;3.25;;;;;;;15.36;69.24;100297.94;10311812;28;20235;-76
2021/07/07 05:29:46;;;;;;;5.95;3.42;;;;;;;15.57;68.61;100308.41;10311323;28;20231;-74
2021/07/07 05:34:50;;;;;;;7.72;3.58;;;;;;;15.53;68.73;100302.47;10309651;28;20231;-75
2021/07/07 05:39:54;;;;;;;7.03;3.28;;;;;;;15.67;68.50;100299.19;10311812;28;20624;-75
2021/07/07 05:44:59;;;;;;;5.75;3.17;;;;;;;15.60;68.67;100313.50;10307640;28;20235;-75
2021/07/07 05:50:02;;;;;;;5.13;3.15;;;;;;;15.43;69.57;100313.38;10310011;28;20999;-73
2021/07/07 05:55:06;;;;;;;5.00;3.25;;;;;;;15.33;70.07;100322.56;10310890;28;20235;-73
2021/07/07 06:00:14;;;;;;;5.20;3.20;;;;;;;15.39;69.99;100316.59;10309570;28;20239;-73
2021/07/07 06:05:17;;;;;;;6.63;2.80;;;;;;;15.48;70.21;100321.03;10309627;28;21519;-73
2021/07/07 06:10:25;;;;;;;7.45;3.33;;;;;;;15.64;69.95;100314.91;10309414;28;20421;-74
2021/07/07 06:15:32;;;;;;;4.18;3.13;;;;;;;15.75;69.64;100327.34;10308158;28;20231;-72
2021/07/07 06:20:36;;;;;;;3.28;2.35;;;;;;;15.98;68.84;100331.19;10308438;28;20231;-72
2021/07/07 06:25:39;;;;;;;5.43;2.63;;;;;;;16.26;68.07;100341.84;10308104;28;20794;-73
2021/07/07 06:30:43;;;;;;;7.30;3.00;;;;;;;16.49;67.27;100353.81;10310217;28;21433;-72
2021/07/07 06:35:46;;;;;;;9.15;3.33;;;;;;;16.70;66.68;100353.38;10307354;28;20239;-72
2021/07/07 06:40:50;;;;;;;4.68;2.75;;;;;;;16.93;66.31;100353.59;10308531;28;20235;-73
2021/07/07 06:45:54;;;;;;;4.30;2.72;;;;;;;17.13;64.76;100351.44;10307333;28;20238;-73
2021/07/07 06:50:57;;;;;;;7.38;2.72;;;;;;;17.32;65.06;100352.16;10307009;28;20238;-73
2021/07/07 06:56:00;;;;;;;6.70;2.88;;;;;;;17.68;63.20;100355.34;10309238;28;21749;-74
2021/07/07 07:01:05;;;;;;;6.03;2.80;;;;;;;17.85;62.04;100353.44;10306841;28;20235;-73
2021/07/07 07:06:07;;;;;;;6.00;2.85;;;;;;;18.16;61.15;100366.34;10306469;28;20629;-73
2021/07/07 07:11:17;;;;;;;7.60;2.97;;;;;;;18.23;61.13;100364.59;10309361;28;20243;-74
2021/07/07 07:16:21;;;;;;;4.13;2.50;;;;;;;18.13;61.26;100367.53;10307747;28;20251;-73
2021/07/07 07:21:24;;;;;;;6.00;2.70;;;;;;;18.38;60.90;100372.91;10308896;28;20277;-74
2021/07/07 07:26:28;;;;;;;6.28;2.75;;;;;;;18.85;58.98;100372.03;10307694;28;20235;-72
2021/07/07 07:31:32;;;;;;;4.68;2.83;;;;;;;18.99;56.59;100374.81;10320027;28;20230;-73
2021/07/07 07:36:35;;;;;;;6.97;2.83;;;;;;;19.57;56.37;100367.09;10306934;28;20238;-72
2021/07/07 07:41:38;;;;;;;6.40;2.70;;;;;;;19.94;55.79;100365.41;10310045;28;20609;-72
2021/07/07 07:46:43;;;;;;;6.13;2.78;;;;;;;20.23;54.66;100377.34;10307082;28;20246;-72
2021/07/07 07:51:46;;;;;;;7.40;2.75;;;;;;;20.21;53.03;100372.06;10306609;28;20231;-72
2021/07/07 07:56:49;;;;;;;10.88;2.70;;;;;;;20.58;51.83;100361.28;10307644;28;20250;-72
2021/07/07 08:01:53;;;;;;;11.25;2.97;;;;;;;20.84;51.27;100356.13;10310148;28;20242;-71
2021/07/07 08:06:56;;;;;;;8.00;2.67;;;;;;;21.61;49.79;100365.53;10310303;28;20242;-73
2021/07/07 08:11:59;;;;;;;5.53;2.67;;;;;;;22.03;48.63;100367.38;10308176;28;20289;-72
2021/07/07 08:17:04;;;;;;;5.07;2.38;;;;;;;23.04;45.61;100371.44;10307988;28;20763;-71
2021/07/07 08:22:07;;;;;;;6.25;2.72;;;;;;;23.56;43.55;100375.31;10309840;28;21959;-71
2021/07/07 08:27:10;;;;;;;6.38;2.70;;;;;;;22.94;45.38;100371.84;10305885;28;20234;-72
2021/07/07 08:32:14;;;;;;;5.15;2.30;;;;;;;22.36;45.79;100393.25;10311438;28;20238;-72
2021/07/07 08:37:17;;;;;;;7.75;3.10;;;;;;;22.21;47.32;100385.97;10309257;28;20246;-71
2021/07/07 08:42:20;;;;;;;6.22;2.80;;;;;;;23.09;45.47;100391.69;10309263;28;20289;-71
2021/07/07 08:47:24;;;;;;;5.50;2.35;;;;;;;23.36;45.08;100389.88;10311887;28;20364;-72
2021/07/07 08:52:27;;;;;;;4.47;2.70;;;;;;;23.56;45.08;100389.91;10309906;28;20618;-72
2021/07/07 08:57:30;;;;;;;5.03;2.40;;;;;;;22.80;42.93;100409.28;10270494;28;1097687;-71
2021/07/07 09:02:47;;;;;;;6.03;2.35;;;;;;;22.11;46.82;100408.25;10309916;28;20241;-72
2021/07/07 09:07:51;;;;;;;5.63;2.47;;;;;;;21.98;45.86;100404.56;10308323;28;20753;-72
2021/07/07 09:12:54;;;;;;;5.75;2.80;;;;;;;22.42;46.13;100409.69;10311552;28;20231;-72
2021/07/07 09:17:58;;;;;;;4.03;2.30;;;;;;;22.81;45.32;100418.34;10310169;28;20912;-72
2021/07/07 09:23:23;;;;;;;6.00;2.25;;;;;;;22.89;43.39;100408.03;10309311;28;20239;-73
2021/07/07 09:28:30;;;;;;;6.22;2.47;;;;;;;22.71;44.56;100416.00;10306897;28;20266;-73
2021/07/07 09:33:39;;;;;;;4.63;2.58;;;;;;;22.90;44.52;100409.75;10308416;28;21457;-73
2021/07/07 09:38:42;;;;;;;7.28;2.70;;;;;;;24.34;41.44;100399.38;10308043;28;20237;-73
2021/07/07 09:43:47;;;;;;;3.63;2.53;;;;;;;22.86;44.11;100413.09;10309173;28;20837;-72
2021/07/07 09:48:53;;;;;;;3.08;2.47;;;;;;;22.91;44.61;100414.16;10306416;28;20793;-73
2021/07/07 09:53:56;;;;;;;3.15;2.40;;;;;;;24.02;43.58;100415.66;10308053;28;20616;-72
2021/07/07 09:59:00;;;;;;;4.65;2.72;;;;;;;23.65;41.79;100416.06;10307924;28;20235;-74
2021/07/07 10:04:05;;;;;;;7.50;2.53;;;;;;;23.56;42.12;100425.56;10308127;28;20238;-73
2021/07/07 10:09:08;;;;;;;5.65;2.10;;;;;;;23.82;41.29;100422.00;10309342;28;20254;-72
2021/07/07 10:14:12;;;;;;;3.50;2.17;;;;;;;23.69;43.84;100427.44;10308381;28;20239;-75
2021/07/07 10:19:17;;;;;;;3.17;2.40;;;;;;;23.09;43.08;100430.06;10309563;28;20234;-75
2021/07/07 10:24:23;;;;;;;6.28;2.40;;;;;;;23.32;42.67;100415.19;10310001;28;20827;-73
2021/07/07 10:29:27;;;;;;;5.15;2.42;;;;;;;24.68;42.11;100411.94;10305690;28;20227;-73
2021/07/07 10:34:32;;;;;;;5.72;2.78;;;;;;;24.42;41.47;100408.25;10303175;28;20239;-73
2021/07/07 10:39:35;;;;;;;5.60;2.13;;;;;;;23.73;38.13;100431.47;10303947;28;20595;-76
2021/07/07 10:44:52;;;;;;;3.47;2.08;;;;;;;24.32;37.65;100421.53;10306987;28;20257;-73
2021/07/07 10:49:57;;;;;;;4.93;2.30;;;;;;;24.97;37.33;100418.81;10305798;28;20246;-73
2021/07/07 10:55:02;;;;;;;3.45;2.10;;;;;;;23.90;37.86;100428.34;10306338;28;20235;-73
2021/07/07 11:00:10;;;;;;;4.07;2.30;;;;;;;23.95;39.59;100423.91;10311407;28;20246;-73
2021/07/07 11:05:25;;;;;;;3.17;1.80;;;;;;;24.86;37.12;100423.09;10305993;28;20247;-73
2021/07/07 11:10:55;;;;;;;3.08;2.05;;;;;;;25.12;36.07;100427.66;10309974;28;20235;-72
2021/07/07 11:15:58;;;;;;;4.82;2.03;;;;;;;25.55;35.07;100424.19;10308129;28;20349;-72
2021/07/07 11:21:07;;;;;;;5.47;2.05;;;;;;;26.01;34.54;100427.69;10309285;28;20613;-73
2021/07/07 11:26:10;;;;;;;2.92;1.77;;;;;;;26.05;35.71;100421.50;10306119;28;20294;-73
2021/07/07 11:31:13;;;;;;;4.72;1.65;;;;;;;27.35;32.40;100422.34;10309606;28;20231;-73
2021/07/07 11:36:24;;;;;;;4.93;1.73;;;;;;;28.10;31.51;100424.56;10312443;28;21026;-74
2021/07/07 11:41:27;;;;;;;5.95;2.45;;;;;;;26.74;32.19;100441.56;10310118;28;20235;-72
2021/07/07 11:46:31;;;;;;;3.22;1.98;;;;;;;25.66;34.88;100432.84;10312977;28;20613;-74
2021/07/07 11:51:38;;;;;;;3.55;2.10;;;;;;;24.50;36.36;100434.63;10312052;28;20239;-73
2021/07/07 11:56:43;;;;;;;4.43;2.00;;;;;;;23.82;38.12;100434.88;10310135;28;20902;-73
2021/07/07 12:01:58;;;;;;;3.70;2.00;;;;;;;23.72;38.95;100437.97;10311905;28;20242;-74
2021/07/07 12:07:02;;;;;;;4.43;2.30;;;;;;;23.27;41.12;100445.09;10310929;28;20796;-73
2021/07/07 12:12:07;;;;;;;5.13;2.33;;;;;;;22.92;41.41;100458.84;10311980;28;20242;-73
2021/07/07 12:17:12;;;;;;;2.40;2.20;;;;;;;22.90;41.33;100458.19;10312839;28;20246;-73
2021/07/07 12:22:20;;;;;;;4.40;2.55;;;;;;;23.49;41.18;100443.88;10312233;28;20624;-73
2021/07/07 12:27:24;;;;;;;6.82;2.20;;;;;;;24.19;39.94;100448.97;10311617;28;20230;-72
2021/07/07 12:32:27;;;;;;;3.33;2.25;;;;;;;25.33;37.52;100451.19;10310298;28;20728;-73
2021/07/07 12:37:32;;;;;;;5.20;2.53;;;;;;;25.19;37.76;100444.09;10309774;28;20239;-73
2021/07/07 12:42:35;;;;;;;6.72;2.40;;;;;;;24.34;38.78;100451.50;10311399;28;20235;-72
2021/07/07 12:47:39;;;;;;;4.95;2.35;;;;;;;26.87;36.05;100442.50;10312615;28;20243;-73
2021/07/07 12:52:45;;;;;;;6.82;2.42;;;;;;;27.76;34.52;100451.03;10312680;28;20239;-73
2021/07/07 12:57:54;;;;;;;10.55;3.05;;;;;;;27.93;34.50;100448.44;10311493;28;20242;-73
2021/07/07 13:02:59;;;;;;;5.95;2.20;;;;;;;28.13;34.10;100450.88;10310543;28;20234;-73
2021/07/07 13:08:06;;;;;;;6.82;2.65;;;;;;;25.59;37.69;100461.22;10311119;28;20235;-73
2021/07/07 13:13:29;;;;;;;6.22;2.65;;;;;;;24.76;38.32;100456.50;10310401;28;20230;-73
2021/07/07 13:18:33;;;;;;;3.67;2.38;;;;;;;24.13;40.02;100445.19;10310918;28;20623;-73
2021/07/07 13:23:38;;;;;;;8.82;2.83;;;;;;;24.28;40.82;100462.28;10311539;28;20258;-73
2021/07/07 13:28:42;;;;;;;5.80;2.35;;;;;;;24.80;39.95;100461.56;10310830;28;21494;-74
2021/07/07 13:33:45;;;;;;;4.72;2.60;;;;;;;24.93;40.92;100451.38;10307619;28;20246;-74
2021/07/07 13:38:50;;;;;;;5.97;2.67;;;;;;;25.11;38.39;100452.59;10309105;28;20811;-73
2021/07/07 13:43:52;;;;;;;5.03;2.40;;;;;;;25.41;38.37;100450.94;10308767;28;20251;-74
2021/07/07 13:48:55;;;;;;;4.78;1.90;;;;;;;26.54;38.02;100451.94;10308999;28;20616;-73
2021/07/07 13:54:00;;;;;;;3.30;2.45;;;;;;;27.37;35.30;100439.47;10308719;28;20239;-71
2021/07/07 13:59:03;;;;;;;6.85;2.33;;;;;;;26.81;35.83;100443.41;10306718;28;20230;-73
2021/07/07 14:04:06;;;;;;;5.60;2.88;;;;;;;27.67;34.23;100436.72;10307004;28;20256;-73
2021/07/07 14:09:10;;;;;;;5.93;2.70;;;;;;;28.65;32.62;100442.69;10308151;28;20231;-74
2021/07/07 14:14:13;;;;;;;5.25;2.40;;;;;;;28.50;32.98;100438.50;10307338;28;20247;-72
2021/07/07 14:19:16;;;;;;;3.65;2.20;;;;;;;28.18;32.33;100435.25;10307652;28;20235;-74
2021/07/07 14:24:20;;;;;;;5.70;2.20;;;;;;;27.67;33.47;100433.97;10310558;28;20242;-74
2021/07/07 14:29:23;;;;;;;6.90;2.50;;;;;;;26.89;34.00;100437.59;10309749;28;20914;-73
2021/07/07 14:34:26;;;;;;;4.20;2.70;;;;;;;25.10;37.76;100439.94;10307624;28;20811;-73
2021/07/07 14:39:30;;;;;;;4.03;2.33;;;;;;;25.41;37.32;100437.19;10306776;28;20231;-74
2021/07/07 14:44:33;;;;;;;5.70;2.25;;;;;;;25.45;37.27;100447.75;10308202;28;20227;-74
2021/07/07 14:49:36;;;;;;;3.60;2.17;;;;;;;24.72;38.75;100444.25;10308126;28;20730;-72
2021/07/07 14:54:40;;;;;;;3.88;2.60;;;;;;;24.15;40.31;100442.25;10306813;28;20262;-73
2021/07/07 14:59:43;;;;;;;4.35;2.60;;;;;;;23.45;41.63;100453.56;10308686;28;20326;-73
2021/07/07 15:04:48;;;;;;;5.68;2.45;;;;;;;23.02;42.78;100456.56;10307444;28;20245;-73
2021/07/07 15:09:52;;;;;;;4.75;2.50;;;;;;;23.12;42.40;100456.19;10314852;28;20691;-73
2021/07/07 15:14:55;;;;;;;3.15;2.13;;;;;;;23.48;41.82;100463.25;10313993;28;20243;-73
2021/07/07 15:19:58;;;;;;;4.40;2.60;;;;;;;23.60;42.71;100462.44;10317203;28;20226;-74
2021/07/07 15:25:05;;;;;;;4.30;2.60;;;;;;;23.86;41.35;100464.41;10316184;28;20235;-76
2021/07/07 15:30:09;;;;;;;4.28;2.50;;;;;;;23.84;41.29;100471.16;10315435;28;20711;-73
2021/07/07 15:35:12;;;;;;;3.10;2.40;;;;;;;23.83;40.41;100470.31;10312356;28;20239;-73
2021/07/07 15:40:17;;;;;;;4.03;1.70;;;;;;;23.20;39.39;100481.53;10313755;28;21511;-74
2021/07/07 15:45:20;;;;;;;3.95;2.33;;;;;;;22.94;40.42;100476.75;10312463;28;20231;-73
2021/07/07 15:50:23;;;;;;;4.38;2.28;;;;;;;23.98;38.67;100470.13;10314097;28;20231;-73
2021/07/07 15:55:32;;;;;;;2.88;2.00;;;;;;;25.38;37.95;100473.38;10310054;28;22004;-73
2021/07/07 16:00:35;;;;;;;4.55;2.00;;;;;;;26.25;35.97;100470.06;10310366;28;20235;-74
2021/07/07 16:05:38;;;;;;;4.88;1.65;;;;;;;28.00;34.41;100463.84;10313271;28;20239;-74
2021/07/07 16:10:42;;;;;;;3.72;1.67;;;;;;;27.87;34.27;100465.94;10312621;28;20613;-73
2021/07/07 16:15:45;;;;;;;4.05;1.40;;;;;;;30.29;30.63;100451.34;10312353;28;20234;-74
2021/07/07 16:20:48;;;;;;;1.67;1.58;;;;;;;28.76;32.39;100454.81;10319997;28;20743;-73
2021/07/07 16:25:52;;;;;;;3.05;1.70;;;;;;;28.08;33.47;100459.03;10311890;28;20329;-72
2021/07/07 16:30:56;;;;;;;2.40;1.35;;;;;;;28.72;34.80;100462.75;10310803;28;20238;-73
2021/07/07 16:35:59;;;;;;;2.35;1.90;;;;;;;29.94;32.21;100469.03;10313778;28;20310;-74
2021/07/07 16:41:03;;;;;;;2.83;1.88;;;;;;;32.64;27.99;100481.63;10311024;28;20227;-74
2021/07/07 16:46:06;;;;;;;4.15;1.90;;;;;;;34.02;25.68;100472.91;10308563;28;20239;-74
2021/07/07 16:51:09;;;;;;;5.18;2.03;;;;;;;36.76;23.47;100476.41;10311528;28;20242;-74
2021/07/07 16:56:14;;;;;;;2.15;1.42;;;;;;;38.33;21.65;100480.81;10310068;28;20246;-74
2021/07/07 17:01:17;;;;;;;4.63;2.10;;;;;;;35.50;24.33;100476.09;10307959;28;20222;-74
2021/07/07 17:06:20;;;;;;;3.38;2.35;;;;;;;34.77;24.19;100476.69;10307287;28;20234;-74
2021/07/07 17:11:25;;;;;;;3.88;2.15;;;;;;;34.39;25.38;100486.53;10308906;28;20585;-74
2021/07/07 17:16:28;;;;;;;3.47;2.03;;;;;;;32.58;26.80;100486.34;10308218;28;20995;-74
2021/07/07 17:21:31;;;;;;;2.28;2.08;;;;;;;29.46;32.26;100487.81;10306867;28;20241;-74
2021/07/07 17:26:36;;;;;;;3.22;1.95;;;;;;;27.53;33.53;100494.03;10306199;28;20242;-74
2021/07/07 17:31:39;;;;;;;2.45;1.95;;;;;;;25.76;37.30;100500.06;10311693;28;20719;-73
2021/07/07 17:36:42;;;;;;;3.42;2.20;;;;;;;24.68;40.05;100502.56;10310066;28;20902;-74
2021/07/07 17:41:46;;;;;;;3.03;2.38;;;;;;;24.20;40.66;100511.91;10309396;28;20242;-73
2021/07/07 17:46:49;;;;;;;3.65;2.60;;;;;;;23.89;41.53;100523.50;10310310;28;20235;-73
2021/07/07 17:51:52;;;;;;;4.88;2.80;;;;;;;23.50;42.10;100533.28;10309736;28;20238;-73
2021/07/07 17:57:16;;;;;;;6.68;2.50;;;;;;;23.35;44.21;100551.78;10311303;28;20231;-73
2021/07/07 18:02:19;;;;;;;7.53;3.00;;;;;;;23.74;45.45;100545.56;10312136;28;20239;-73
2021/07/07 18:07:22;;;;;;;7.07;3.67;;;;;;;23.85;45.23;100542.25;10311679;28;20613;-72
2021/07/07 18:12:27;;;;;;;9.18;2.65;;;;;;;23.26;46.90;100544.78;10309658;28;20616;-73
2021/07/07 18:17:30;;;;;;;4.15;2.38;;;;;;;22.96;47.80;100548.63;10308618;28;20251;-73
2021/07/07 18:22:33;;;;;;;4.40;2.10;;;;;;;22.87;47.66;100540.75;10309755;28;20340;-73
2021/07/07 18:27:37;;;;;;;4.45;2.42;;;;;;;22.69;48.11;100555.81;10309451;28;20242;-73
2021/07/07 18:32:40;;;;;;;5.30;2.28;;;;;;;22.73;48.22;100564.47;10307296;28;20241;-73
2021/07/07 18:37:43;;;;;;;4.47;2.22;;;;;;;22.64;48.20;100568.41;10309057;28;20362;-73
2021/07/07 18:42:48;;;;;;;3.75;2.20;;;;;;;22.45;49.01;100568.06;10308065;28;20231;-73
2021/07/07 18:47:52;;;;;;;7.75;2.30;;;;;;;22.44;49.06;100577.31;10307520;28;20341;-73
2021/07/07 18:52:55;;;;;;;6.68;2.83;;;;;;;22.33;50.15;100578.66;10307866;28;20255;-73
2021/07/07 18:58:00;;;;;;;5.35;2.78;;;;;;;22.23;49.86;100580.03;10308665;28;20234;-73
2021/07/07 19:03:03;;;;;;;4.07;2.95;;;;;;;22.07;50.68;100584.72;10307921;28;20251;-73
2021/07/07 19:08:07;;;;;;;6.38;3.90;;;;;;;21.89;51.50;100571.50;10306464;28;20250;-73
2021/07/07 19:13:11;;;;;;;9.20;3.55;;;;;;;21.64;51.68;100584.66;10307557;28;20670;-73
2021/07/07 19:18:15;;;;;;;3.75;2.58;;;;;;;21.56;52.41;100590.25;10307946;28;20390;-73
2021/07/07 19:23:18;;;;;;;4.43;2.42;;;;;;;21.71;53.30;100597.56;10308325;28;20586;-74
2021/07/07 19:28:23;;;;;;;5.20;3.40;;;;;;;21.56;53.12;100597.59;10307622;28;20243;-73
2021/07/07 19:33:26;;;;;;;6.60;2.60;;;;;;;21.26;54.45;100605.00;10307352;28;20238;-73
2021/07/07 19:38:29;;;;;;;5.97;2.70;;;;;;;21.17;54.48;100604.22;10306835;28;20824;-73
2021/07/07 19:43:34;;;;;;;9.27;2.75;;;;;;;20.93;54.20;100610.78;10305300;28;20234;-73
2021/07/07 19:48:37;;;;;;;3.35;3.05;;;;;;;20.71;54.89;100612.53;10304360;28;20231;-73
2021/07/07 19:53:39;;;;;;;4.55;4.10;;;;;;;20.51;55.71;100615.78;10325696;28;20234;-73
2021/07/07 19:58:44;;;;;;;4.88;3.10;;;;;;;20.36;55.65;100622.22;10314325;28;20238;-73
2021/07/07 20:03:46;;;;;;;6.00;3.78;;;;;;;20.26;56.11;100625.16;10312511;28;20254;-73
2021/07/07 20:08:49;;;;;;;4.70;3.88;;;;;;;20.17;56.53;100624.38;10311998;28;20238;-73
2021/07/07 20:13:54;;;;;;;4.63;3.08;;;;;;;20.01;57.05;100619.03;10313240;28;20592;-73
2021/07/07 20:18:57;;;;;;;3.60;2.60;;;;;;;19.98;57.42;100630.31;10310668;28;20610;-73
2021/07/07 20:24:00;;;;;;;4.72;3.08;;;;;;;19.67;58.49;100633.91;10311289;28;20731;-73
2021/07/07 20:29:04;;;;;;;4.57;2.67;;;;;;;19.12;60.39;100637.47;10310818;28;20282;-73
2021/07/07 20:34:07;;;;;;;4.25;3.17;;;;;;;18.89;61.14;100623.72;10270266;28;20239;-72
2021/07/07 20:39:10;;;;;;;3.92;2.92;;;;;;;18.96;61.14;100631.03;10271988;28;21587;-73
2021/07/07 20:44:14;;;;;;;6.82;4.25;;;;;;;19.02;61.16;100630.34;10269825;28;20235;-73
2021/07/07 20:49:19;;;;;;;5.68;3.30;;;;;;;18.98;61.22;100636.31;10271080;28;20338;-73
2021/07/07 20:54:21;;;;;;;5.25;3.80;;;;;;;19.01;61.19;100644.97;10269934;28;20246;-74
2021/07/07 20:59:26;;;;;;;6.07;3.10;;;;;;;19.01;61.37;100650.44;10270677;28;20743;-75
2021/07/07 21:04:29;;;;;;;5.68;3.40;;;;;;;18.97;61.58;100659.09;10267825;28;20239;-74
2021/07/07 21:09:32;;;;;;;5.10;3.88;;;;;;;18.95;62.27;100663.88;10275772;28;20253;-74
2021/07/07 21:14:37;;;;;;;5.05;3.83;;;;;;;18.90;63.13;100661.69;10313336;28;20720;-73
2021/07/07 21:19:39;;;;;;;5.22;3.70;;;;;;;18.87;63.42;100662.03;10308945;28;20257;-74
2021/07/07 21:24:42;;;;;;;5.80;3.60;;;;;;;18.85;63.60;100664.06;10310898;28;20246;-75
2021/07/07 21:29:47;;;;;;;3.92;3.33;;;;;;;18.82;64.05;100671.72;10309972;28;20246;-75
2021/07/07 21:34:50;;;;;;;7.35;3.30;;;;;;;18.78;64.31;100671.19;10307364;28;20277;-75
2021/07/07 21:39:53;;;;;;;8.55;4.13;;;;;;;18.64;64.77;100666.41;10309106;28;20234;-74
2021/07/07 21:44:57;;;;;;;8.07;3.90;;;;;;;18.55;65.53;100657.41;10309629;28;20243;-74
2021/07/07 21:50:00;;;;;;;5.30;4.05;;;;;;;18.49;66.07;100649.94;10309027;28;20303;-74
2021/07/07 21:55:03;;;;;;;9.45;4.07;;;;;;;18.46;66.22;100642.97;10309606;28;20600;-74
2021/07/07 22:00:10;;;;;;;4.57;4.05;;;;;;;18.47;66.79;100655.53;10310172;28;21404;-74
2021/07/07 22:05:14;;;;;;;6.85;4.25;;;;;;;18.48;66.98;100656.38;10309754;28;20243;-74
2021/07/07 22:10:18;;;;;;;7.00;4.32;;;;;;;18.44;67.32;100676.78;10308993;28;20281;-72
2021/07/07 22:15:24;;;;;;;6.10;3.97;;;;;;;18.30;67.63;100686.47;10311541;28;20261;-74
2021/07/07 22:20:26;;;;;;;5.75;3.78;;;;;;;17.69;69.27;100696.63;10305170;28;20235;-75
2021/07/07 22:25:30;;;;;;;6.55;4.18;;;;;;;17.80;69.46;100700.88;10305436;28;20231;-73
2021/07/07 22:30:34;;;;;;;8.23;4.20;;;;;;;17.90;69.35;100698.91;10310768;28;20245;-74
2021/07/07 22:35:38;;;;;;;7.65;4.00;;;;;;;17.93;69.51;100695.84;10307850;28;20234;-74
2021/07/07 22:40:41;;;;;;;8.27;4.85;;;;;;;18.00;69.20;100698.81;10308847;28;20365;-74
2021/07/07 22:45:45;;;;;;;8.25;4.63;;;;;;;17.99;69.04;100697.97;10309213;28;20239;-74
2021/07/07 22:50:50;;;;;;;7.65;4.78;;;;;;;17.96;68.87;100703.66;10307918;28;20785;-74
2021/07/07 22:55:53;;;;;;;11.23;5.05;;;;;;;17.91;69.11;100706.06;10306436;28;20296;-74
2021/07/07 23:00:57;;;;;;;8.90;5.07;;;;;;;17.93;69.53;100706.72;10307551;28;20337;-74
2021/07/07 23:06:00;;;;;;;10.00;4.30;;;;;;;17.96;69.22;100697.38;10305997;28;20961;-74
2021/07/07 23:11:04;;;;;;;7.10;4.85;;;;;;;18.07;69.38;100710.69;10305678;28;20243;-74
2021/07/07 23:16:08;;;;;;;5.80;4.40;;;;;;;18.12;68.97;100717.34;10307716;28;20251;-74